createdAt,value
2022-08-28T00:00:00.000Z,10.22
2022-08-28T00:15:00.000Z,10.52
2022-08-28T00:30:00.000Z,10.47
2022-08-28T00:45:00.000Z,11.81
2022-08-28T01:00:00.000Z,12.59
2022-08-28T01:30:00.000Z,10
2022-08-28T01:30:00.000Z,10.11
2022-08-28T01:45:00.000Z,8.09
2022-08-28T02:00:00.000Z,7.69
2022-08-28T02:15:00.000Z,7.55
2022-08-28T02:30:00.000Z,7.37
2022-08-28T02:45:00.000Z,7.92
2022-08-28T03:00:00.000Z,8.2
2022-08-28T03:15:00.000Z,7.44
2022-08-28T03:30:00.000Z,7.58
2022-08-28T03:45:00.000Z,7.16
2022-08-28T04:00:00.000Z,7.12
2022-08-28T04:15:00.000Z,7.19
2022-08-28T04:30:00.000Z,7.27
2022-08-28T04:45:00.000Z,7.41
2022-08-28T05:00:00.000Z,7.33
2022-08-28T05:15:00.000Z,7.6
2022-08-28T05:30:00.000Z,7.24
2022-08-28T05:45:00.000Z,10.55
2022-08-28T06:00:00.000Z,12.47
2022-08-28T06:15:00.000Z,14.11
2022-08-28T06:30:00.000Z,13.98
2022-08-28T06:45:00.000Z,14.48
2022-08-28T07:00:00.000Z,15.27
2022-08-28T07:15:00.000Z,14.01
2022-08-28T07:30:00.000Z,12.98
2022-08-28T07:45:00.000Z,10.45
2022-08-28T08:00:00.000Z,10.38
2022-08-28T08:15:00.000Z,11.41
2022-08-28T08:30:00.000Z,10.88
2022-08-28T08:45:00.000Z,10.06
2022-08-28T09:00:00.000Z,8.76
2022-08-28T09:15:00.000Z,7.74
2022-08-28T09:30:00.000Z,7.84
2022-08-28T09:45:00.000Z,7.15
2022-08-28T10:00:00.000Z,6.73
2022-08-28T10:15:00.000Z,6.32
2022-08-28T10:30:00.000Z,5.46
2022-08-28T10:45:00.000Z,4.78
2022-08-28T11:00:00.000Z,5.09
2022-08-28T11:15:00.000Z,7.04
2022-08-28T11:30:00.000Z,8.25
2022-08-28T11:45:00.000Z,8.64
2022-08-28T12:00:00.000Z,11.32
2022-08-28T12:15:00.000Z,9.11
2022-08-28T12:30:00.000Z,8.21
2022-08-28T12:45:00.000Z,8.35
2022-08-28T13:00:00.000Z,10.52
2022-08-28T13:15:00.000Z,10.59
2022-08-28T13:30:00.000Z,11.26
2022-08-28T13:45:00.000Z,11.84
2022-08-28T14:00:00.000Z,16.12
2022-08-28T14:15:00.000Z,16.01
2022-08-28T14:30:00.000Z,18.22
2022-08-28T14:45:00.000Z,15.84
2022-08-28T15:00:00.000Z,17.52
2022-08-28T15:15:00.000Z,17.74
2022-08-28T15:30:00.000Z,21.06
2022-08-28T15:45:00.000Z,17.65
2022-08-28T16:00:00.000Z,29.21
2022-08-28T16:15:00.000Z,22.01
2022-08-28T16:30:00.000Z,20.73
2022-08-28T16:45:00.000Z,20.76
2022-08-28T17:00:00.000Z,20.32
2022-08-28T17:15:00.000Z,22.27
2022-08-28T17:30:00.000Z,22.95
2022-08-28T17:45:00.000Z,25.25
2022-08-28T18:00:00.000Z,26.07
2022-08-28T18:15:00.000Z,28.52
2022-08-28T18:30:00.000Z,30.04
2022-08-28T18:45:00.000Z,29.91
2022-08-28T19:00:00.000Z,29.61
2022-08-28T19:15:00.000Z,28.52
2022-08-28T19:30:00.000Z,27.74
2022-08-28T19:45:00.000Z,27.08
2022-08-28T20:00:00.000Z,26.55
2022-08-28T20:15:00.000Z,23.61
2022-08-28T20:30:00.000Z,23.68
2022-08-28T20:45:00.000Z,24.31
2022-08-28T21:00:00.000Z,26.18
2022-08-28T21:15:00.000Z,28.11
2022-08-28T21:30:00.000Z,27.6
2022-08-28T21:45:00.000Z,28.13
2022-08-28T22:00:00.000Z,28.25
2022-08-28T22:15:00.000Z,26.47
2022-08-28T22:30:00.000Z,25.48
2022-08-28T22:45:00.000Z,24.22
2022-08-28T23:00:00.000Z,24.41
2022-08-28T23:15:00.000Z,24.41
2022-08-28T23:30:00.000Z,25.14
2022-08-28T23:45:00.000Z,24.32
